Time;durP1;ratioP1;P1;durP2;ratioP2;P2;SDS_P1;SDS_P2;PMS_P1;PMS_P2;Temp;Humidity;BMP_temperature;BMP_pressure;BME280_temperature;BME280_humidity;BME280_pressure;Samples;Min_cycle;Max_cycle;Signal;HPM_P1;HPM_P2
2023/02/07 00:00:17;;;;;;;18.02;9.05;;;1.20;99.90;;;0.09;100.00;103040.69;4186376;28;20104;-82
2023/02/07 00:02:18;;;;;;;19.73;7.90;;;1.20;99.90;;;0.11;100.00;103036.31;4186299;28;20116;-82
2023/02/07 00:04:19;;;;;;;17.98;8.80;;;1.20;99.90;;;0.22;100.00;103045.56;4185890;28;20024;-81
2023/02/07 00:06:38;;;;;;;15.88;8.73;;;1.20;99.90;;;0.13;100.00;103029.34;4169382;28;20037;-82
2023/02/07 00:08:40;;;;;;;22.15;8.93;;;1.20;99.90;;;0.16;100.00;103030.13;4186043;28;20071;-82
2023/02/07 00:10:41;;;;;;;20.90;9.30;;;1.20;99.90;;;0.12;100.00;103030.25;4185724;28;20049;-82
2023/02/07 00:12:42;;;;;;;13.18;8.48;;;1.20;99.90;;;0.15;100.00;103040.56;4186890;28;20079;-81
2023/02/07 00:14:43;;;;;;;16.13;8.45;;;1.20;99.90;;;0.19;100.00;103037.84;4185743;28;20393;-82
2023/02/07 00:16:44;;;;;;;16.98;8.68;;;1.30;99.90;;;0.27;100.00;103040.28;4186496;28;20052;-81
2023/02/07 00:18:46;;;;;;;21.52;9.07;;;1.30;99.90;;;0.31;100.00;103041.91;4187018;28;20025;-81
2023/02/07 00:21:07;;;;;;;21.00;9.15;;;1.30;99.90;;;0.33;100.00;103034.97;4186808;28;20053;-81
2023/02/07 00:23:08;;;;;;;24.83;9.30;;;1.40;99.90;;;0.26;100.00;103015.22;4185852;28;20044;-81
2023/02/07 00:25:10;;;;;;;20.83;8.82;;;1.40;99.90;;;0.38;100.00;103030.50;4185576;28;20025;-82
2023/02/07 00:27:11;;;;;;;16.65;8.98;;;1.40;99.90;;;0.21;100.00;103001.50;4185652;28;20063;-82
2023/02/07 00:29:12;;;;;;;22.38;9.20;;;1.40;99.90;;;0.29;100.00;103020.34;4186055;28;20497;-82
2023/02/07 00:31:23;;;;;;;19.33;9.70;;;1.30;99.90;;;0.18;100.00;103007.59;4186832;28;20025;-81
2023/02/07 00:33:24;;;;;;;20.45;8.85;;;1.30;99.90;;;0.19;100.00;103003.25;4185557;28;20033;-82
2023/02/07 00:35:25;;;;;;;25.05;9.10;;;1.30;99.90;;;0.14;100.00;103002.50;4185303;28;20025;-81
2023/02/07 00:37:26;;;;;;;23.38;9.73;;;1.30;99.90;;;0.15;100.00;103017.22;4185273;28;20036;-82
2023/02/07 00:39:27;;;;;;;20.45;8.93;;;1.20;99.90;;;0.07;100.00;103004.38;4186755;28;20047;-81
2023/02/07 00:41:29;;;;;;;20.50;9.48;;;1.20;99.90;;;0.11;100.00;103003.44;4185685;28;20021;-82
2023/02/07 00:43:31;;;;;;;17.17;8.23;;;1.20;99.90;;;0.13;100.00;102998.19;4186236;28;20033;-82
2023/02/07 00:45:32;;;;;;;16.83;8.90;;;1.20;99.90;;;0.03;100.00;102997.53;4196554;28;20067;-82
2023/02/07 00:47:33;;;;;;;19.00;8.88;;;1.20;99.90;;;0.04;100.00;103001.00;4186589;28;20029;-82
2023/02/07 00:49:34;;;;;;;15.82;9.45;;;1.20;99.90;;;0.09;100.00;103006.97;4185366;28;20120;-82
2023/02/07 00:51:35;;;;;;;19.67;8.88;;;1.20;99.90;;;-0.03;100.00;102989.94;4186380;28;20040;-82
2023/02/07 00:53:36;;;;;;;22.45;10.52;;;1.20;99.90;;;0.09;100.00;103001.78;4186126;28;20029;-82
2023/02/07 00:55:36;;;;;;;21.45;10.30;;;1.20;99.90;;;0.11;100.00;103000.84;4185054;28;20029;-82
2023/02/07 00:57:37;;;;;;;24.27;10.55;;;1.20;99.90;;;0.24;100.00;103006.63;4184999;28;20025;-82
2023/02/07 00:59:38;;;;;;;18.10;8.70;;;1.30;99.90;;;0.16;100.00;102983.41;4168396;28;20508;-82
2023/02/07 01:01:39;;;;;;;21.75;9.75;;;1.30;99.90;;;0.12;100.00;102991.31;4186320;28;20017;-82
2023/02/07 01:03:41;;;;;;;18.48;10.07;;;1.30;99.90;;;0.08;100.00;102985.34;4168462;28;20133;-82
2023/02/07 01:05:42;;;;;;;18.65;9.13;;;1.20;99.90;;;0.10;100.00;102996.53;4210234;28;20016;-82
2023/02/07 01:07:43;;;;;;;17.88;8.60;;;1.20;99.90;;;0.05;100.00;102990.59;4184900;28;20029;-82
2023/02/07 01:09:43;;;;;;;18.60;9.50;;;1.20;99.90;;;0.04;100.00;102998.41;4184727;28;20488;-82
2023/02/07 01:11:44;;;;;;;19.67;9.60;;;1.10;99.90;;;-0.11;100.00;102987.47;4184651;28;20482;-82
2023/02/07 01:13:45;;;;;;;20.52;9.07;;;1.00;99.90;;;-0.18;100.00;102993.69;4185831;28;20485;-82
2023/02/07 01:15:48;;;;;;;14.10;8.60;;;1.00;99.90;;;-0.19;100.00;102981.63;4185852;28;20025;-82
2023/02/07 01:17:49;;;;;;;22.85;9.98;;;1.00;99.90;;;-0.25;100.00;102968.78;4184541;28;20017;-82
2023/02/07 01:19:49;;;;;;;21.35;9.88;;;0.90;99.90;;;-0.10;100.00;102999.56;4184844;28;20059;-82
2023/02/07 01:21:50;;;;;;;17.88;8.68;;;1.00;99.90;;;-0.22;100.00;102981.69;4185918;28;20435;-82
2023/02/07 01:23:55;;;;;;;16.38;8.68;;;0.90;99.90;;;-0.26;100.00;102980.03;4185870;28;20056;-82
2023/02/07 01:25:56;;;;;;;19.33;8.90;;;0.90;99.90;;;-0.32;100.00;102976.69;4168552;28;20394;-82
2023/02/07 01:27:57;;;;;;;15.82;8.40;;;0.90;99.90;;;-0.37;100.00;102979.41;4185713;28;20039;-82
2023/02/07 01:39:46;;;;;;;13.20;7.10;;;0.60;99.90;;;-0.66;100.00;102976.53;4187263;28;20044;-83
2023/02/07 01:41:47;;;;;;;13.45;7.53;;;0.60;99.90;;;-0.72;100.00;102974.06;4184599;28;20025;-82
2023/02/07 01:44:27;;;;;;;17.98;7.85;;;0.50;99.90;;;-0.81;100.00;102985.47;4167478;28;20408;-82
2023/02/07 01:46:30;;;;;;;18.00;7.40;;;0.40;99.90;;;-0.94;100.00;102977.94;4189773;28;20036;-82
2023/02/07 01:48:35;;;;;;;22.42;8.50;;;0.30;99.90;;;-0.88;100.00;102978.69;4200224;28;20122;-82
2023/02/07 01:50:41;;;;;;;18.60;9.13;;;0.20;99.90;;;-0.84;100.00;102987.25;4185451;28;20032;-80
2023/02/07 01:52:42;;;;;;;16.98;8.88;;;0.30;99.90;;;-0.80;100.00;102987.16;4171338;28;20039;-81
2023/02/07 01:54:47;;;;;;;18.30;7.90;;;0.30;99.90;;;-0.83;100.00;102986.34;4179854;28;20025;-81
2023/02/07 01:56:55;;;;;;;17.25;7.50;;;0.20;99.90;;;-0.98;100.00;102960.72;4179281;28;20057;-81
2023/02/07 01:58:56;;;;;;;15.82;8.27;;;0.20;99.90;;;-0.94;100.00;102976.22;4184095;28;20029;-81
2023/02/07 02:01:00;;;;;;;17.80;9.63;;;0.20;99.90;;;-0.95;100.00;102971.03;4184315;28;20086;-81
2023/02/07 02:03:02;;;;;;;19.58;8.10;;;0.20;99.90;;;-0.90;100.00;102966.66;4192525;28;20029;-81
2023/02/07 02:05:04;;;;;;;15.68;7.95;;;0.20;99.90;;;-0.89;100.00;102965.75;4183984;28;20060;-81
2023/02/07 02:07:07;;;;;;;18.73;8.02;;;0.20;99.90;;;-0.81;100.00;102975.09;4185453;28;20094;-81
2023/02/07 02:09:13;;;;;;;22.65;8.85;;;0.30;99.90;;;-0.80;100.00;102981.13;4183948;28;20055;-81
2023/02/07 02:11:27;;;;;;;17.70;9.40;;;0.30;99.90;;;-0.71;100.00;102991.31;4183903;28;20532;-81
2023/02/07 02:13:40;;;;;;;21.73;9.32;;;0.30;99.90;;;-0.72;100.00;102979.25;4179173;28;20504;-81
2023/02/07 02:16:02;;;;;;;18.70;9.00;;;0.40;99.90;;;-0.60;100.00;102994.56;4183292;28;20029;-82
2023/02/07 02:18:51;;;;;;;21.50;10.57;;;0.40;99.90;;;-0.67;100.00;102992.97;4185400;28;20508;-81
2023/02/07 02:21:16;;;;;;;20.85;8.35;;;0.40;99.90;;;-0.63;100.00;102999.81;4178781;28;20037;-81
2023/02/07 02:24:01;;;;;;;15.23;8.20;;;0.40;99.90;;;-0.58;100.00;102997.97;4185418;28;20104;-81
2023/02/07 02:26:33;;;;;;;17.85;9.20;;;0.50;99.90;;;-0.58;100.00;102997.97;4184627;28;20037;-81
2023/02/07 02:28:56;;;;;;;16.65;8.00;;;0.50;99.90;;;-0.62;100.00;102999.78;4216603;28;20028;-82
2023/02/07 02:31:37;;;;;;;18.17;8.15;;;0.50;99.90;;;-0.75;100.00;102987.09;4200605;28;20033;-82
2023/02/07 02:33:52;;;;;;;17.42;9.00;;;0.40;99.90;;;-0.79;100.00;102983.69;4184804;28;20033;-81
2023/02/07 02:36:37;;;;;;;18.17;8.88;;;0.40;99.90;;;-0.73;100.00;102993.09;4184982;28;20442;-82
2023/02/07 02:39:04;;;;;;;22.75;9.93;;;0.30;99.90;;;-0.66;100.00;102989.50;4185160;28;20435;-82
2023/02/07 02:41:20;;;;;;;19.45;9.82;;;0.40;99.90;;;-0.67;100.00;102988.66;4183682;28;20029;-82
2023/02/07 02:43:45;;;;;;;21.98;10.30;;;0.40;99.90;;;-0.63;100.00;102973.91;4183761;28;20033;-82
2023/02/07 02:46:05;;;;;;;;;;;0.40;99.90;;;-0.66;100.00;102973.97;4179489;28;20040;-82
2023/02/07 02:48:10;;;;;;;19.30;8.85;;;0.50;99.90;;;-0.72;100.00;102968.91;4184558;28;19909;-82
2023/02/07 02:50:18;;;;;;;17.88;9.40;;;0.50;99.90;;;-0.74;100.00;102970.63;4183913;28;20021;-82
2023/02/07 02:52:19;;;;;;;25.30;10.50;;;0.40;99.90;;;-0.73;100.00;102974.94;4187162;28;20045;-81
2023/02/07 02:54:38;;;;;;;22.73;9.88;;;0.40;99.90;;;-0.77;100.00;102963.78;4179001;28;20471;-82
2023/02/07 02:57:13;;;;;;;24.25;10.50;;;0.40;99.90;;;-0.70;100.00;102978.34;4175647;28;20071;-82
2023/02/07 02:59:57;;;;;;;18.83;8.95;;;0.40;99.90;;;-0.83;100.00;102971.66;4189126;28;20068;-82
2023/02/07 03:02:11;;;;;;;16.92;9.57;;;0.30;99.90;;;-0.96;100.00;102953.81;4217335;28;20046;-82
2023/02/07 03:04:12;;;;;;;14.07;8.17;;;0.30;99.90;;;-0.95;100.00;102966.72;4186824;28;20036;-81
2023/02/07 03:06:47;;;;;;;22.30;9.05;;;0.20;99.90;;;-1.04;100.00;102972.06;4203209;28;20036;-82
2023/02/07 03:09:32;;;;;;;23.80;8.50;;;0.10;99.90;;;-1.16;100.00;102954.16;4188274;28;20088;-82
2023/02/07 03:11:48;;;;;;;15.05;6.97;;;0.10;99.90;;;-1.07;100.00;102977.28;4173788;28;20040;-82
2023/02/07 03:14:18;;;;;;;14.95;8.27;;;0.00;99.90;;;-1.06;100.00;102979.03;4187490;28;20551;-81
2023/02/07 03:16:42;;;;;;;20.15;9.05;;;0.00;99.90;;;-1.12;100.00;102968.78;4187712;28;20025;-82
2023/02/07 03:19:12;;;;;;;14.05;8.65;;;0.00;99.90;;;-1.23;100.00;102958.63;4186368;28;20029;-82
2023/02/07 03:21:36;;;;;;;17.60;8.35;;;0.00;99.90;;;-1.17;100.00;102965.41;4186527;28;20091;-82
2023/02/07 03:23:38;;;;;;;19.13;9.18;;;0.00;99.90;;;-1.24;100.00;102964.66;4186786;28;20029;-82
2023/02/07 03:25:41;;;;;;;17.15;8.80;;;0.00;99.90;;;-1.20;100.00;102965.47;4186573;28;20032;-82
2023/02/07 03:27:44;;;;;;;16.60;8.98;;;0.00;99.90;;;-1.19;100.00;102970.59;4186576;28;20028;-82
2023/02/07 03:29:51;;;;;;;18.25;9.07;;;0.00;99.90;;;-1.19;100.00;102967.16;4186606;28;20029;-82
2023/02/07 03:31:57;;;;;;;18.90;8.25;;;0.00;99.90;;;-1.20;100.00;102970.66;4186768;28;20029;-82
2023/02/07 03:34:06;;;;;;;15.32;8.20;;;0.00;99.90;;;-1.24;100.00;102963.81;4187573;28;20055;-82
2023/02/07 03:36:21;;;;;;;15.25;8.70;;;0.00;99.90;;;-1.33;100.00;102954.47;4154015;28;20117;-82
2023/02/07 03:38:23;;;;;;;14.43;6.80;;;0.00;99.90;;;-1.35;100.00;102953.66;4164109;28;20057;-82
2023/02/07 03:40:47;;;;;;;19.17;8.30;;;-0.10;99.90;;;-1.37;100.00;102951.94;4186297;28;20029;-82
2023/02/07 03:43:12;;;;;;;17.98;8.05;;;-0.10;99.90;;;-1.37;100.00;102945.03;4186541;28;20163;-82
2023/02/07 03:45:18;;;;;;;22.83;8.80;;;-0.10;99.90;;;-1.36;100.00;102948.47;4186465;28;20112;-82
2023/02/07 03:47:19;;;;;;;16.60;8.52;;;-0.20;99.90;;;-1.39;100.00;102946.81;4185294;28;20501;-82
2023/02/07 03:49:20;;;;;;;21.15;8.90;;;-0.10;99.90;;;-1.24;100.00;102959.47;4177349;28;20033;-82
2023/02/07 03:51:22;;;;;;;14.75;7.82;;;-0.10;99.90;;;-1.36;100.00;102931.22;4186232;28;20470;-82
2023/02/07 03:53:23;;;;;;;16.25;7.97;;;-0.10;99.90;;;-1.35;100.00;102945.88;4187215;28;20021;-82
2023/02/07 03:55:24;;;;;;;18.33;8.38;;;-0.20;99.90;;;-1.41;100.00;102925.28;4186095;28;20037;-82
2023/02/07 03:57:24;;;;;;;15.57;8.43;;;-0.20;99.90;;;-1.42;100.00;102910.63;4186273;28;20067;-82
2023/02/07 03:59:26;;;;;;;17.80;7.90;;;-0.20;99.90;;;-1.34;100.00;102919.09;4187377;28;20500;-82
2023/02/07 04:01:27;;;;;;;25.02;8.10;;;-0.10;99.90;;;-1.26;100.00;102927.59;4187388;28;20040;-82
2023/02/07 04:03:28;;;;;;;21.83;9.38;;;-0.10;99.90;;;-1.19;100.00;102925.72;4184723;28;20032;-82
2023/02/07 04:05:29;;;;;;;19.25;8.85;;;-0.10;99.90;;;-1.26;100.00;102909.47;4169928;28;20033;-82
2023/02/07 04:07:30;;;;;;;15.23;8.63;;;0.00;99.90;;;-1.27;100.00;102905.16;4187331;28;20039;-82
2023/02/07 04:09:31;;;;;;;17.77;8.70;;;-0.10;99.90;;;-1.18;100.00;102925.72;4187729;28;20040;-83
2023/02/07 04:11:32;;;;;;;18.42;8.30;;;-0.10;99.90;;;-1.18;100.00;102923.13;4172765;28;20049;-82
2023/02/07 04:13:33;;;;;;;21.55;8.55;;;0.00;99.90;;;-1.08;100.00;102929.00;4185642;28;20115;-82
2023/02/07 04:15:34;;;;;;;16.65;8.18;;;0.00;99.90;;;-1.02;100.00;102931.47;4185697;28;20075;-82
2023/02/07 04:17:35;;;;;;;19.27;8.40;;;0.10;99.90;;;-1.02;100.00;102931.47;4185817;28;20036;-82
2023/02/07 04:19:36;;;;;;;14.73;8.32;;;0.10;99.90;;;-1.04;100.00;102930.63;4169486;28;20026;-82
2023/02/07 04:21:37;;;;;;;19.65;8.45;;;0.00;99.90;;;-1.15;100.00;102911.84;4187259;28;20587;-82
2023/02/07 04:23:38;;;;;;;21.40;8.82;;;0.00;99.90;;;-1.17;100.00;102911.03;4202063;28;20119;-82
2023/02/07 04:25:39;;;;;;;15.85;8.05;;;0.00;99.90;;;-1.20;100.00;102916.28;4185483;28;20032;-82
2023/02/07 04:27:40;;;;;;;18.33;8.73;;;0.00;99.90;;;-1.20;100.00;102917.13;4186639;28;20427;-82
2023/02/07 04:29:41;;;;;;;17.25;8.05;;;0.00;99.90;;;-1.08;100.00;102923.81;4185372;28;20021;-82
2023/02/07 04:31:42;;;;;;;16.08;7.68;;;0.00;99.90;;;-1.03;100.00;102926.31;4185863;28;20107;-82
2023/02/07 04:33:42;;;;;;;24.67;9.60;;;0.10;99.90;;;-1.00;100.00;102937.47;4185309;28;20040;-82
2023/02/07 04:35:43;;;;;;;15.77;8.35;;;0.10;99.90;;;-1.01;100.00;102932.31;4168933;28;20025;-82
2023/02/07 04:37:44;;;;;;;15.00;8.13;;;0.10;99.90;;;-1.05;100.00;102922.91;4186717;28;20032;-82
2023/02/07 04:39:45;;;;;;;19.05;7.90;;;0.10;99.90;;;-1.12;100.00;102922.16;4186627;28;20029;-82
2023/02/07 04:41:46;;;;;;;19.45;7.80;;;0.10;99.90;;;-1.13;100.00;102926.47;4168738;28;20112;-82
2023/02/07 04:43:47;;;;;;;16.83;8.75;;;0.10;99.90;;;-1.26;100.00;102918.97;4186210;28;20032;-82
2023/02/07 04:45:48;;;;;;;17.25;8.45;;;0.00;99.90;;;-1.29;100.00;102913.84;4185675;28;20021;-82
2023/02/07 04:47:49;;;;;;;15.52;8.18;;;0.00;99.90;;;-1.39;100.00;102913.16;4185348;28;20036;-81
2023/02/07 04:49:50;;;;;;;24.83;8.27;;;-0.10;99.90;;;-1.43;100.00;102920.97;4186504;28;20024;-82
2023/02/07 04:51:51;;;;;;;16.60;7.72;;;-0.20;99.90;;;-1.54;100.00;102915.13;4185181;28;20033;-81
2023/02/07 04:53:52;;;;;;;23.15;9.13;;;-0.30;99.90;;;-1.56;100.00;102922.94;4184986;28;20029;-82
2023/02/07 04:55:54;;;;;;;16.60;8.57;;;-0.30;99.90;;;-1.50;100.00;102928.03;4185367;28;20599;-82
2023/02/07 04:57:54;;;;;;;19.02;8.38;;;-0.40;99.90;;;-1.52;100.00;102923.75;4184774;28;20019;-81
2023/02/07 04:59:55;;;;;;;13.43;7.00;;;-0.30;99.90;;;-1.42;100.00;102936.50;4201065;28;20028;-81
2023/02/07 05:01:56;;;;;;;13.00;7.78;;;-0.30;99.90;;;-1.49;100.00;102947.81;4184779;28;20039;-82
2023/02/07 05:03:57;;;;;;;16.58;7.30;;;-0.40;99.90;;;-1.71;100.00;102930.97;4186131;28;20043;-82
2023/02/07 05:05:58;;;;;;;18.60;7.32;;;-0.50;99.90;;;-1.86;100.00;102910.50;4168604;28;20424;-82
2023/02/07 05:07:59;;;;;;;15.82;7.13;;;-0.50;99.90;;;-1.87;100.00;102919.13;4186023;28;20033;-83
2023/02/07 05:10:00;;;;;;;13.15;6.75;;;-0.60;99.90;;;-1.78;100.00;102947.44;4182801;28;20053;-82
2023/02/07 05:12:01;;;;;;;18.77;7.93;;;-0.60;99.90;;;-1.92;100.00;102939.03;4176569;28;20064;-82
2023/02/07 05:14:02;;;;;;;16.98;8.15;;;-0.70;99.90;;;-1.96;100.00;102922.72;4184653;28;20036;-82
2023/02/07 05:16:04;;;;;;;16.65;7.47;;;-0.70;99.90;;;-1.95;100.00;102923.56;4184891;28;20378;-82
2023/02/07 05:18:05;;;;;;;14.90;6.63;;;-0.70;99.90;;;-2.01;100.00;102918.50;4184890;28;20078;-82
2023/02/07 05:20:07;;;;;;;11.25;7.28;;;-0.80;99.90;;;-2.01;100.00;102924.53;4184501;28;20040;-82
2023/02/07 05:22:08;;;;;;;16.48;7.20;;;-0.80;99.90;;;-2.03;100.00;102925.44;4168153;28;20025;-82
2023/02/07 05:24:09;;;;;;;18.75;8.52;;;-0.80;99.90;;;-2.12;100.00;102913.47;4184641;28;20036;-82
2023/02/07 05:26:09;;;;;;;16.50;8.15;;;-0.90;99.90;;;-2.05;100.00;102914.22;4185909;28;20024;-82
2023/02/07 05:28:10;;;;;;;21.02;8.27;;;-0.90;99.90;;;-2.04;100.00;102910.78;4184507;28;20060;-82
2023/02/07 05:30:12;;;;;;;17.20;8.13;;;-0.80;99.90;;;-1.92;100.00;102933.88;4185943;28;20055;-82
2023/02/07 05:34:35;;;;;;;16.25;7.93;;;-0.80;99.90;;;-1.96;100.00;102916.69;4185045;28;20123;-81
2023/02/07 05:36:35;;;;;;;17.17;7.82;;;-0.80;99.90;;;-2.03;100.00;102918.50;4184936;28;20087;-81
2023/02/07 05:38:36;;;;;;;14.93;7.97;;;-0.80;99.90;;;-2.04;100.00;102919.41;4185778;28;20025;-82
2023/02/07 05:40:40;;;;;;;17.08;8.13;;;-0.80;99.90;;;-2.00;100.00;102922.78;4185471;28;20022;-82
2023/02/07 05:42:41;;;;;;;12.55;5.72;;;-0.80;99.90;;;-1.97;100.00;102931.34;4184691;28;20025;-82
2023/02/07 05:44:42;;;;;;;19.08;8.35;;;-0.80;99.90;;;-1.95;100.00;102926.16;4185375;28;20028;-82
2023/02/07 05:46:43;;;;;;;17.98;7.95;;;-0.80;99.90;;;-2.04;100.00;102905.59;4185708;28;20059;-82
2023/02/07 05:48:43;;;;;;;17.45;8.23;;;-0.80;99.90;;;-2.06;100.00;102891.84;4172592;28;20533;-82
2023/02/07 05:50:44;;;;;;;19.20;8.70;;;-0.80;99.90;;;-2.12;100.00;102902.28;4185786;28;20025;-82
2023/02/07 05:52:45;;;;;;;25.27;8.10;;;-0.80;99.90;;;-2.05;100.00;102920.25;4185386;28;20024;-82
2023/02/07 05:54:46;;;;;;;18.80;8.82;;;-0.90;99.90;;;-2.04;100.00;102919.41;4185387;28;20060;-82
2023/02/07 05:56:47;;;;;;;20.35;9.13;;;-0.90;99.90;;;-2.06;100.00;102902.19;4185458;28;20079;-82
2023/02/07 05:58:48;;;;;;;26.15;9.57;;;-0.90;99.90;;;-1.92;100.00;102920.94;4167314;28;20088;-82
2023/02/07 06:00:49;;;;;;;18.20;8.48;;;-0.90;99.90;;;-2.01;100.00;102900.38;4184510;28;20017;-82
2023/02/07 06:02:50;;;;;;;21.95;7.65;;;-0.90;99.90;;;-2.00;100.00;102915.03;4184197;28;20052;-82
2023/02/07 06:04:51;;;;;;;16.85;8.05;;;-0.80;99.90;;;-1.87;100.00;102906.19;4184027;28;20131;-82
2023/02/07 06:06:52;;;;;;;18.70;8.75;;;-0.80;99.90;;;-1.82;100.00;102919.91;4174512;28;20037;-82
2023/02/07 06:08:53;;;;;;;19.73;8.98;;;-0.70;99.90;;;-1.81;100.00;102921.63;4168004;28;20061;-82
2023/02/07 06:10:53;;;;;;;23.98;8.80;;;-0.70;99.90;;;-1.79;100.00;102927.63;4183969;28;20107;-82
2023/02/07 06:12:54;;;;;;;20.15;8.05;;;-0.70;99.90;;;-1.67;100.00;102953.28;4183919;28;20029;-82
2023/02/07 06:14:55;;;;;;;23.52;8.65;;;-0.60;99.90;;;-1.66;100.00;102944.66;4200480;28;20063;-82
2023/02/07 06:16:56;;;;;;;17.17;7.53;;;-0.60;99.90;;;-1.73;100.00;102933.56;4167486;28;20083;-82
2023/02/07 06:18:57;;;;;;;14.18;7.20;;;-0.60;99.90;;;-1.80;100.00;102928.50;4184088;28;20378;-82
2023/02/07 06:20:58;;;;;;;15.95;7.00;;;-0.60;99.90;;;-1.91;100.00;102933.84;4200444;28;20027;-82
2023/02/07 06:22:59;;;;;;;14.40;7.18;;;-0.70;99.90;;;-1.99;100.00;102934.81;4184219;28;20037;-81
2023/02/07 06:25:00;;;;;;;11.93;7.65;;;-0.70;99.90;;;-2.00;100.00;102948.66;4183420;28;20036;-81
2023/02/07 06:27:01;;;;;;;15.23;6.97;;;-0.80;99.90;;;-2.09;100.00;102952.19;4210416;28;20087;-82
2023/02/07 06:29:02;;;;;;;15.43;7.63;;;-0.90;99.90;;;-2.27;100.00;102937.81;4184815;28;20095;-82
2023/02/07 06:31:04;;;;;;;15.25;7.65;;;-0.90;99.90;;;-2.29;100.00;102939.56;4183677;28;20088;-82
2023/02/07 06:33:05;;;;;;;14.27;7.00;;;-1.00;99.90;;;-2.34;100.00;102928.44;4184020;28;20067;-81
2023/02/07 06:35:06;;;;;;;17.10;8.27;;;-1.00;99.90;;;-2.36;100.00;102935.34;4185020;28;20476;-81
2023/02/07 06:37:07;;;;;;;19.98;7.28;;;-1.00;99.90;;;-2.34;100.00;102946.53;4184942;28;20388;-82
2023/02/07 06:39:08;;;;;;;14.38;7.00;;;-1.10;99.90;;;-2.32;100.00;102951.66;4183974;28;20021;-81
2023/02/07 06:41:10;;;;;;;13.30;7.28;;;-1.20;99.90;;;-2.41;100.00;102951.78;4185194;28;20053;-82
2023/02/07 06:43:11;;;;;;;16.80;7.68;;;-1.20;99.90;;;-2.44;100.00;102957.00;4183585;28;20024;-81
2023/02/07 06:45:12;;;;;;;16.55;7.50;;;-1.20;99.90;;;-2.43;100.00;102946.66;4183781;28;20036;-81
2023/02/07 06:47:13;;;;;;;17.17;7.95;;;-1.20;99.90;;;-2.46;100.00;102954.44;4182385;28;20040;-82
2023/02/07 06:49:14;;;;;;;18.10;7.78;;;-1.20;99.90;;;-2.45;100.00;102956.13;4173541;28;20468;-82
2023/02/07 06:51:15;;;;;;;17.48;7.82;;;-1.20;99.90;;;-2.46;100.00;102945.81;4183651;28;20187;-82
2023/02/07 06:53:16;;;;;;;18.60;7.75;;;-1.20;99.90;;;-2.42;100.00;102956.09;4167283;28;20033;-81
2023/02/07 06:55:17;;;;;;;24.40;9.02;;;-1.20;99.90;;;-2.40;100.00;102972.44;4183558;28;20117;-81
2023/02/07 06:57:18;;;;;;;16.02;8.27;;;-1.20;99.90;;;-2.50;100.00;102960.50;4183608;28;20025;-82
2023/02/07 06:59:18;;;;;;;15.02;8.30;;;-1.20;99.90;;;-2.43;100.00;102969.91;4166905;28;20037;-81
2023/02/07 07:01:21;;;;;;;23.02;8.45;;;-1.30;99.90;;;-2.50;100.00;102962.22;4183919;28;20074;-83
2023/02/07 07:03:25;;;;;;;19.85;8.27;;;-1.20;99.90;;;-2.53;100.00;102957.97;4183736;28;20053;-81
2023/02/07 07:05:28;;;;;;;18.40;8.73;;;-1.30;99.90;;;-2.56;100.00;102968.34;4183640;28;20017;-81
2023/02/07 07:07:29;;;;;;;17.25;8.43;;;-1.30;99.90;;;-2.46;100.00;102982.00;4183703;28;20135;-80
2023/02/07 07:09:30;;;;;;;23.90;9.38;;;-1.30;99.90;;;-2.35;100.00;102990.47;4183610;28;20029;-80
2023/02/07 07:11:31;;;;;;;20.17;9.20;;;-1.20;99.90;;;-2.18;100.00;102985.09;4184060;28;20080;-82
2023/02/07 07:13:32;;;;;;;20.15;8.82;;;-1.10;99.90;;;-2.24;100.00;102992.03;4200019;28;20044;-82
2023/02/07 07:15:32;;;;;;;21.30;9.02;;;-1.00;99.90;;;-2.35;100.00;103004.25;4183440;28;20036;-81
2023/02/07 07:17:33;;;;;;;17.85;8.63;;;-1.10;99.90;;;-2.37;100.00;102995.69;4183715;28;20021;-82
2023/02/07 07:19:34;;;;;;;18.55;8.77;;;-1.10;99.90;;;-2.43;100.00;102992.31;4216766;28;20058;-78
2023/02/07 07:21:35;;;;;;;17.63;7.90;;;-1.20;99.90;;;-2.41;100.00;102993.13;4184580;28;20033;-82
2023/02/07 07:23:36;;;;;;;14.00;7.25;;;-1.20;99.90;;;-2.43;100.00;102998.34;4183610;28;20079;-82
2023/02/07 07:25:37;;;;;;;23.00;8.98;;;-1.30;99.90;;;-2.57;100.00;102976.94;4183459;28;20033;-80
2023/02/07 07:27:38;;;;;;;17.92;8.10;;;-1.30;99.90;;;-2.61;100.00;102969.25;4216475;28;20487;-79
2023/02/07 07:29:39;;;;;;;15.20;7.78;;;-1.30;99.90;;;-2.59;100.00;102962.34;4184473;28;20059;-79
2023/02/07 07:31:39;;;;;;;18.90;7.97;;;-1.30;99.90;;;-2.53;100.00;102976.03;4183840;28;20127;-79
2023/02/07 07:33:40;;;;;;;14.68;7.72;;;-1.30;99.90;;;-2.65;100.00;102959.84;4200013;28;20025;-79
2023/02/07 07:35:41;;;;;;;22.83;9.20;;;-1.40;99.90;;;-2.57;100.00;102971.78;4183149;28;20025;-79
2023/02/07 07:37:42;;;;;;;18.88;8.25;;;-1.40;99.90;;;-2.51;100.00;102976.88;4184817;28;20063;-79
2023/02/07 07:39:43;;;;;;;20.25;9.40;;;-1.30;99.90;;;-2.44;100.00;102970.78;4187599;28;20021;-79
2023/02/07 07:41:44;;;;;;;23.33;8.88;;;-1.20;99.90;;;-2.26;100.00;102980.88;4187451;28;20029;-79
2023/02/07 07:43:45;;;;;;;22.65;8.40;;;-1.10;99.90;;;-2.16;100.00;102988.50;4187184;28;20033;-79
2023/02/07 07:46:00;;;;;;;21.05;8.18;;;-1.00;99.90;;;-2.21;100.00;102975.63;4187456;28;20037;-79
2023/02/07 07:48:01;;;;;;;20.65;8.25;;;-1.00;99.90;;;-2.22;100.00;102975.66;4179768;28;20088;-79
2023/02/07 07:50:02;;;;;;;24.75;9.32;;;-0.90;99.90;;;-2.15;100.00;102987.66;4184785;28;20037;-79
2023/02/07 07:52:03;;;;;;;19.33;8.93;;;-0.90;99.90;;;-1.94;100.00;102984.78;4187449;28;20562;-79
2023/02/07 07:54:04;;;;;;;26.73;9.10;;;-0.80;99.90;;;-1.90;100.00;102970.91;4187611;28;20060;-79
2023/02/07 07:56:05;;;;;;;28.30;9.85;;;-0.70;99.90;;;-1.79;100.00;102997.47;4187478;28;20469;-79
2023/02/07 07:58:06;;;;;;;25.00;10.38;;;-0.60;99.90;;;-1.87;100.00;102994.13;4187063;28;20056;-79
2023/02/07 08:00:08;;;;;;;18.38;8.40;;;-0.60;99.90;;;-1.80;100.00;103001.81;4186315;28;20622;-79
2023/02/07 08:02:12;;;;;;;17.50;8.40;;;-0.60;99.90;;;-1.66;100.00;102996.41;4187479;28;20028;-79
2023/02/07 08:04:12;;;;;;;23.00;10.00;;;-0.60;99.90;;;-1.49;100.00;102998.75;4186012;28;20040;-79
2023/02/07 08:06:13;;;;;;;27.17;9.23;;;-0.50;99.90;;;-1.47;100.00;102987.50;4186013;28;20255;-79
2023/02/07 08:08:16;;;;;;;24.55;9.50;;;-0.30;99.90;;;-1.42;100.00;102992.59;4186935;28;20029;-79
2023/02/07 08:10:17;;;;;;;24.25;8.73;;;-0.20;99.90;;;-1.38;100.00;102986.50;4196475;28;20025;-76
2023/02/07 08:12:17;;;;;;;21.67;9.15;;;-0.20;99.90;;;-1.30;100.00;102969.94;4179980;28;20045;-77
2023/02/07 08:14:18;;;;;;;22.70;10.27;;;-0.10;99.90;;;-1.12;100.00;102974.81;4127007;28;20101;-77
2023/02/07 08:16:19;;;;;;;21.63;9.38;;;0.00;99.90;;;-0.99;100.00;102998.75;4135795;28;20529;-77
2023/02/07 08:18:20;;;;;;;27.67;9.98;;;0.10;99.90;;;-0.85;100.00;102993.31;4136799;28;20022;-76
2023/02/07 08:20:22;;;;;;;23.95;10.50;;;0.20;99.90;;;-0.86;100.00;102978.63;4139779;28;20465;-76
2023/02/07 08:22:23;;;;;;;20.95;9.75;;;0.30;99.90;;;-0.68;100.00;102996.44;4141834;28;20058;-76
2023/02/07 08:24:24;;;;;;;27.77;10.50;;;0.40;99.90;;;-0.69;100.00;102980.03;4137639;28;20026;-76
2023/02/07 08:26:24;;;;;;;21.73;9.18;;;0.50;99.90;;;-0.52;100.00;102989.22;4136769;28;20030;-75
2023/02/07 08:28:26;;;;;;;25.13;11.13;;;0.50;99.90;;;-0.27;100.00;102985.25;4169098;28;20029;-75
2023/02/07 08:30:27;;;;;;;26.17;10.30;;;0.70;99.90;;;-0.26;100.00;102990.41;4139096;28;20072;-76
2023/02/07 08:32:28;;;;;;;20.92;10.23;;;0.80;99.90;;;-0.22;100.00;102992.06;4161966;28;20041;-76
2023/02/07 08:34:35;;;;;;;27.40;10.15;;;0.90;99.90;;;-0.24;100.00;102993.81;4137703;28;20486;-77
2023/02/07 08:36:38;;;;;;;21.90;8.95;;;0.90;99.90;;;-0.21;100.00;102985.97;4137952;28;20030;-76
2023/02/07 08:38:39;;;;;;;24.33;9.05;;;1.00;99.90;;;0.03;100.00;103007.91;4136515;28;20024;-76
2023/02/07 08:40:40;;;;;;;22.08;9.70;;;1.10;99.90;;;0.04;100.00;102998.41;4139059;28;20481;-76
2023/02/07 08:42:40;;;;;;;23.25;10.43;;;1.20;99.90;;;0.06;100.00;103007.03;4136174;28;20058;-76